Flight Track Log - Related Links

Times and Time Zones

All times are in EDT time to prevent confusion due to time zone crossing. See the N1926A flight status page for this flight to view local times or setup timezone preferences in your user account.

Time Position Orientation Groundspeed Altitude Reporting Facility
EDT Latitude Longitude Course Direction KTS MPH feet Rate Location/Type
Tue 08:21:39 AM 32.6864 -85.7614 29° Northeast 228 262 4,700  Level Atlanta Center
Tue 08:22:40 AM 32.7514 -85.7356 18° North 295 339 5,900 1,339 Climbing Atlanta Center
Tue 08:23:40 AM 32.8061 -85.7022 27° Northeast 246 283 7,400 1,350 Climbing Atlanta Center
Tue 08:24:40 AM 32.8608 -85.6708 26° Northeast 221 254 8,600 1,300 Climbing Atlanta Center
Tue 08:25:00 AM 32.8749 -85.6445 29° Northeast  Level FlightAware Approximate
Tue 08:25:40 AM 32.9178 -85.6350 28° Northeast 221 254 10,000  Level Atlanta Center
Tue 08:26:40 AM 32.9744 -85.6014 26° Northeast 221 254 11,400 1,300 Climbing Atlanta Center
Tue 08:27:40 AM 33.0292 -85.5650 29° Northeast 221 254 12,600 1,200 Climbing Atlanta Center
Tue 08:28:40 AM 33.0903 -85.5289 26° Northeast 221 254 13,800 1,250 Climbing Atlanta Center
Tue 08:29:40 AM 33.1469 -85.4953 26° Northeast 226 260 15,100 1,250 Climbing Atlanta Center
Tue 08:30:40 AM 33.2081 -85.4542 29° Northeast 226 260 16,300 1,100 Climbing Atlanta Center
Tue 08:31:40 AM 33.2667 -85.4203 26° Northeast 231 266 17,300 1,050 Climbing Atlanta Center
Tue 08:32:40 AM 33.3278 -85.3789 30° Northeast 231 266 18,400 1,000 Climbing Atlanta Center
Tue 08:33:40 AM 33.3908 -85.3425 26° Northeast 241 277 19,300 900 Climbing Atlanta Center
Tue 08:34:40 AM 33.4517 -85.3011 30° Northeast 246 283 20,200 900 Climbing Atlanta Center
Tue 08:35:40 AM 33.5128 -85.2572 31° Northeast 246 283 21,100 950 Climbing Atlanta Center
Tue 08:36:40 AM 33.5756 -85.2231 24° Northeast 246 283 22,100 900 Climbing Atlanta Center
Tue 08:37:40 AM 33.6344 -85.1817 30° Northeast 241 277 22,900 800 Climbing Atlanta Center
Tue 08:38:40 AM 33.6975 -85.1450 26° Northeast 248 285 23,700 750 Climbing Atlanta Center
Tue 08:39:40 AM 33.7583 -85.1058 28° Northeast 243 280 24,400 650 Climbing Atlanta Center
Tue 08:40:40 AM 33.8150 -85.0739 25° Northeast 238 274 25,000 300 Climbing Atlanta Center
Tue 08:41:40 AM 33.8781 -85.0322 29° Northeast 238 274 25,000  Level Atlanta Center
Tue 08:42:40 AM 33.9431 -84.9928 27° Northeast 245 282 25,000  Level Atlanta Center
Tue 08:43:40 AM 34.0081 -84.9508 28° Northeast 251 289 25,000  Level Atlanta Center
Tue 08:44:40 AM 34.0772 -84.9117 25° Northeast 265 305 25,000  Level Atlanta Center
Tue 08:45:40 AM 34.1422 -84.8697 28° Northeast 265 305 25,000  Level Atlanta Center
Tue 08:46:40 AM 34.2092 -84.8275 28° Northeast 265 305 25,000  Level Atlanta Center
Tue 08:47:40 AM 34.2761 -84.7853 28° Northeast 265 305 25,000  Level Atlanta Center
Tue 08:48:40 AM 34.3433 -84.7406 29° Northeast 265 305 25,000  Level Atlanta Center
Tue 08:49:40 AM 34.4083 -84.6958 30° Northeast 265 305 25,000  Level Atlanta Center
Tue 08:50:40 AM 34.4772 -84.6561 25° Northeast 265 305 25,000  Level Atlanta Center
Tue 08:51:40 AM 34.5442 -84.6086 30° Northeast 265 305 25,000  Level Atlanta Center
Tue 08:52:40 AM 34.6114 -84.5689 26° Northeast 265 305 25,000  Level Atlanta Center
Tue 08:53:40 AM 34.6761 -84.5236 30° Northeast 265 305 25,000  Level Atlanta Center
Tue 08:54:40 AM 34.7453 -84.4811 27° Northeast 265 305 25,000  Level Atlanta Center
Tue 08:55:40 AM 34.8122 -84.4358 29° Northeast 265 305 25,000  Level Atlanta Center
Tue 08:56:40 AM 34.8789 -84.3933 28° Northeast 265 305 25,000  Level Atlanta Center
Tue 08:57:40 AM 34.9458 -84.3506 28° Northeast 265 305 25,000  Level Atlanta Center
Tue 08:58:40 AM 35.0128 -84.3075 28° Northeast 265 305 25,000  Level Atlanta Center
Tue 08:59:40 AM 35.0797 -84.2622 29° Northeast 265 305 25,000  Level Atlanta Center
Tue 09:00:40 AM 35.1464 -84.2192 28° Northeast 265 305 25,000  Level Atlanta Center
Tue 09:01:40 AM 35.2133 -84.1761 28° Northeast 265 305 25,000  Level Atlanta Center
Tue 09:02:40 AM 35.2781 -84.1303 30° Northeast 265 305 25,000  Level Atlanta Center
Tue 09:03:40 AM 35.3447 -84.0847 29° Northeast 265 305 25,000  Level Atlanta Center
Tue 09:04:40 AM 35.4117 -84.0414 28° Northeast 265 305 25,000  Level Atlanta Center
Tue 09:05:40 AM 35.4783 -83.9953 29° Northeast 265 305 25,000  Level Atlanta Center
Tue 09:06:40 AM 35.5472 -83.9544 26° Northeast 265 305 25,000  Level Atlanta Center
Tue 09:07:40 AM 35.6139 -83.9111 28° Northeast 265 305 25,000  Level Atlanta Center
Tue 09:08:40 AM 35.6806 -83.8622 31° Northeast 265 305 25,000  Level Atlanta Center
Tue 09:09:40 AM 35.7494 -83.8186 27° Northeast 265 305 25,000  Level Atlanta Center
Tue 09:10:40 AM 35.8161 -83.7750 28° Northeast 265 305 25,000  Level Atlanta Center
Tue 09:11:40 AM 35.8847 -83.7286 29° Northeast 265 305 25,000  Level Atlanta Center
Tue 09:12:40 AM 35.9514 -83.6847 28° Northeast 265 305 25,000  Level Atlanta Center
Tue 09:13:40 AM 36.0181 -83.6383 29° Northeast 265 305 25,000  Level Atlanta Center
Tue 09:14:40 AM 36.0867 -83.5942 27° Northeast 265 305 25,000  Level Atlanta Center
Tue 09:15:40 AM 36.1594 -83.5397 31° Northeast 265 305 25,000  Level Atlanta Center
Tue 09:16:42 AM 36.2269 -83.4942 29° Northeast 276 318 25,000  Level Indianapolis Center
Tue 09:17:44 AM 36.2947 -83.4481 29° Northeast 277 319 25,000  Level Indianapolis Center
Tue 09:18:46 AM 36.3742 -83.3942 29° Northeast 277 319 25,000  Level Indianapolis Center
Tue 09:19:48 AM 36.4419 -83.3481 29° Northeast 277 319 25,000  Level Indianapolis Center
Tue 09:20:50 AM 36.5100 -83.3014 29° Northeast 277 319 25,000  Level Indianapolis Center
Tue 09:21:52 AM 36.5783 -83.2547 29° Northeast 277 319 25,000  Level Indianapolis Center
Tue 09:22:54 AM 36.6444 -83.2086 29° Northeast 277 319 25,000  Level Indianapolis Center
Tue 09:23:56 AM 36.7119 -83.1619 29° Northeast 276 318 25,000  Level Indianapolis Center
Tue 09:24:58 AM 36.7900 -83.1081 29° Northeast 276 318 25,000  Level Indianapolis Center
Tue 09:26:00 AM 36.8572 -83.0622 29° Northeast 276 318 25,000  Level Indianapolis Center
Tue 09:27:02 AM 36.9250 -83.0161 29° Northeast 275 316 25,000  Level Indianapolis Center
Tue 09:28:04 AM 36.9931 -82.9689 29° Northeast 274 315 25,000  Level Indianapolis Center
Tue 09:29:06 AM 37.0606 -82.9217 29° Northeast 274 315 25,000  Level Indianapolis Center
Tue 09:30:08 AM 37.1272 -82.8747 29° Northeast 274 315 25,000  Level Indianapolis Center
Tue 09:31:10 AM 37.1947 -82.8278 29° Northeast 274 315 25,000  Level Indianapolis Center
Tue 09:32:12 AM 37.2611 -82.7814 29° Northeast 274 315 25,000  Level Indianapolis Center
Tue 09:33:14 AM 37.3289 -82.7344 29° Northeast 274 315 25,000  Level Indianapolis Center
Tue 09:34:15 AM 37.4056 -82.6794 30° Northeast 273 314 25,000  Level Indianapolis Center
Tue 09:35:17 AM 37.4722 -82.6328 29° Northeast 274 315 25,000  Level Indianapolis Center
Tue 09:36:19 AM 37.5386 -82.5861 29° Northeast 274 315 25,000  Level Indianapolis Center
Tue 09:37:21 AM 37.6044 -82.5375 30° Northeast 274 315 25,000  Level Indianapolis Center
Tue 09:38:23 AM 37.6706 -82.4914 29° Northeast 273 314 25,000  Level Indianapolis Center
Tue 09:39:25 AM 37.7472 -82.4378 29° Northeast 272 313 25,000  Level Indianapolis Center
Tue 09:40:27 AM 37.8133 -82.3911 29° Northeast 272 313 25,000  Level Indianapolis Center
Tue 09:41:29 AM 37.8792 -82.3444 29° Northeast 272 313 25,000  Level Indianapolis Center
Tue 09:42:31 AM 37.9450 -82.2978 29° Northeast 272 313 25,000  Level Indianapolis Center
Tue 09:43:33 AM 38.0092 -82.2467 32° Northeast 272 313 25,000  Level Indianapolis Center
Tue 09:44:35 AM 38.0756 -82.1967 31° Northeast 274 315 25,000  Level Indianapolis Center
Tue 09:45:38 AM 38.1481 -82.1447 29° Northeast 274 315 25,000  Level Indianapolis Center
Tue 09:46:39 AM 38.2164 -82.0989 28° Northeast 274 315 25,000  Level Indianapolis Center
Tue 09:47:41 AM 38.2828 -82.0528 29° Northeast 273 314 25,000  Level Indianapolis Center
Tue 09:48:43 AM 38.3506 -82.0058 29° Northeast 273 314 25,000  Level Indianapolis Center
Tue 09:49:46 AM 38.4292 -81.9494 29° Northeast 272 313 25,000  Level Indianapolis Center
Tue 09:50:48 AM 38.4961 -81.9017 29° Northeast 273 314 25,000  Level Indianapolis Center
Tue 09:51:50 AM 38.5617 -81.8547 29° Northeast 272 313 25,000  Level Indianapolis Center
Tue 09:52:52 AM 38.6272 -81.8078 29° Northeast 272 313 25,000  Level Indianapolis Center
Tue 09:53:54 AM 38.6942 -81.7592 30° Northeast 272 313 25,000  Level Indianapolis Center
Tue 09:54:56 AM 38.7611 -81.7097 30° Northeast 272 313 25,000  Level Indianapolis Center
Tue 09:55:58 AM 38.8275 -81.6603 30° Northeast 272 313 25,000 -48 Level Indianapolis Center
Tue 09:57:00 AM 38.8939 -81.6111 30° Northeast 272 313 24,900 -242 Descending Indianapolis Center
Tue 09:58:02 AM 38.9622 -81.5592 31° Northeast 279 321 24,500 -1,694 Descending Indianapolis Center
Tue 09:59:04 AM 39.0528 -81.4911 30° Northeast 317 365 21,400 -2,323 Descending Indianapolis Center
Tue 10:00:06 AM 39.1294 -81.4400 27° Northeast 315 362 19,700 -1,920 Descending Indianapolis Center
Tue 10:01:09 AM 39.2031 -81.3867 29° Northeast 305 351 17,400 -2,160 Descending Indianapolis Center
Tue 10:02:11 AM 39.2792 -81.3300 30° Northeast 309 356 15,200 -2,081 Descending Indianapolis Center
Tue 10:03:13 AM 39.3531 -81.2781 29° Northeast 307 353 13,100 -2,032 Descending Indianapolis Center
Tue 10:04:15 AM 39.4256 -81.2214 31° Northeast 305 351 11,000 -1,935 Descending Indianapolis Center
Tue 10:05:17 AM 39.5114 -81.1608 29° Northeast 300 345 9,100 -968 Descending Indianapolis Center
Tue 10:06:19 AM 39.5761 -81.1119 30° Northeast 284 327 9,000 -48 Descending Indianapolis Center
Tue 10:07:21 AM 39.6350 -81.0622 33° Northeast 266 306 9,000  Level Indianapolis Center
Tue 10:08:23 AM 39.6925 -81.0128 33° Northeast 255 293 9,000 -48 Level Indianapolis Center
Tue 10:09:25 AM 39.7511 -80.9664 31° Northeast 251 289 8,900 -823 Descending Indianapolis Center
Tue 10:10:27 AM 39.8117 -80.9103 35° Northeast 255 293 7,300 -1,355 Descending Indianapolis Center
Tue 10:11:29 AM 39.8761 -80.8628 29° Northeast 264 304 6,100 -1,016 Descending Indianapolis Center
Tue 10:12:31 AM 39.9369 -80.8175 30° Northeast 259 298 5,200 -947 Descending Indianapolis Center
Tue 10:13:42 AM 40.0086 -80.7686 28° Northeast 226 260 4,000 -722 Descending Cleveland Center
Tue 10:14:44 AM 40.0517 -80.7314 33° Northeast 204 235 3,600 -484 Descending Cleveland Center
Tue 10:15:46 AM 40.0917 -80.6978 33° Northeast 186 214 3,000 -629 Descending Cleveland Center
Tue 10:16:48 AM 40.1283 -80.6764 24° Northeast 161 185 2,300 -677 Descending Cleveland Center
Tue 10:17:50 AM 40.1642 -80.6547 25° Northeast 145 167 1,600 -677 Descending Cleveland Center

Login

Don't have an account? Register now (free) for customized features, flight alerts, and more!